createdAt,value
2019-02-28T00:02:13.564Z,6.00
2019-02-28T00:04:46.678Z,7.80
2019-02-28T00:07:19.102Z,8.00
2019-02-28T00:09:51.466Z,8.00
2019-02-28T00:12:24.188Z,6.60
2019-02-28T00:14:58.613Z,8.20
2019-02-28T00:17:30.577Z,6.40
2019-02-28T00:20:03.063Z,7.40
2019-02-28T00:22:35.657Z,7.00
2019-02-28T00:25:09.963Z,8.00
2019-02-28T00:27:42.425Z,6.20
2019-02-28T00:30:18.150Z,8.00
2019-02-28T00:32:50.530Z,7.40
2019-02-28T00:35:23.018Z,6.00
2019-02-28T00:37:58.851Z,5.80
2019-02-28T00:40:31.431Z,6.40
2019-02-28T00:43:03.982Z,6.40
2019-02-28T00:45:37.316Z,6.00
2019-02-28T00:48:10.089Z,4.60
2019-02-28T00:50:42.662Z,5.60
2019-02-28T00:53:15.214Z,4.20
2019-02-28T00:55:47.944Z,5.20
2019-02-28T00:58:20.351Z,5.80
2019-02-28T01:00:52.842Z,6.20
2019-02-28T01:03:27.420Z,6.00
2019-02-28T01:05:59.328Z,5.00
2019-02-28T01:08:31.805Z,4.40
2019-02-28T01:11:04.244Z,6.80
2019-02-28T01:13:36.651Z,4.40
2019-02-28T01:16:09.029Z,5.00
2019-02-28T01:18:41.459Z,4.20
2019-02-28T01:21:13.822Z,4.60
2019-02-28T01:23:46.497Z,5.80
2019-02-28T01:26:18.980Z,5.00
2019-02-28T01:28:51.470Z,4.60
2019-02-28T01:31:24.622Z,4.20
2019-02-28T01:33:58.754Z,5.20
2019-02-28T01:36:31.576Z,3.60
2019-02-28T01:39:04.612Z,3.00
2019-02-28T01:41:38.436Z,4.00
2019-02-28T01:44:10.962Z,4.00
2019-02-28T01:46:43.430Z,2.60
2019-02-28T01:49:15.846Z,3.80
2019-02-28T01:51:48.209Z,4.00
2019-02-28T01:54:20.781Z,5.80
2019-02-28T01:56:53.525Z,2.80
2019-02-28T01:59:26.351Z,3.60
2019-02-28T02:01:58.861Z,4.40
2019-02-28T02:04:31.310Z,3.40
2019-02-28T02:07:11.205Z,4.00
2019-02-28T02:09:48.908Z,2.00
2019-02-28T02:12:23.380Z,4.00
2019-02-28T02:14:58.461Z,3.40
2019-02-28T02:17:36.224Z,3.40
2019-02-28T02:20:11.222Z,3.20
2019-02-28T02:22:45.691Z,3.00
2019-02-28T02:25:19.130Z,2.00
2019-02-28T02:27:53.419Z,2.00
2019-02-28T02:30:26.815Z,2.00
2019-02-28T02:32:59.201Z,2.00
2019-02-28T02:35:31.728Z,0.80
2019-02-28T02:38:04.878Z,2.00
2019-02-28T02:40:37.499Z,1.40
2019-02-28T02:43:10.867Z,1.00
2019-02-28T02:45:43.762Z,1.00
2019-02-28T02:48:16.311Z,0.00
2019-02-28T02:50:48.725Z,0.00
2019-02-28T02:53:21.489Z,0.00
2019-02-28T02:55:55.014Z,0.00
2019-02-28T02:58:28.891Z,1.00
2019-02-28T03:01:01.373Z,0.00
2019-02-28T03:03:33.864Z,0.60
2019-02-28T03:06:12.058Z,0.60
2019-02-28T03:08:40.167Z,0.00
2019-02-28T03:11:12.887Z,0.00
2019-02-28T03:13:45.330Z,1.00
2019-02-28T03:16:18.411Z,2.40
2019-02-28T03:18:56.957Z,5.60
2019-02-28T03:21:24.640Z,8.40
2019-02-28T03:23:57.053Z,5.60
2019-02-28T03:26:30.986Z,5.60
2019-02-28T03:29:07.541Z,8.00
2019-02-28T03:31:37.436Z,11.40
2019-02-28T03:34:13.160Z,8.00
2019-02-28T03:36:43.456Z,10.40
2019-02-28T03:39:15.712Z,10.00
2019-02-28T03:41:49.039Z,5.40
2019-02-28T03:44:22.266Z,6.20
2019-02-28T03:46:54.690Z,8.80
2019-02-28T03:49:27.522Z,7.20
2019-02-28T03:52:05.387Z,8.00
2019-02-28T03:54:35.139Z,6.60
2019-02-28T03:57:08.079Z,5.60
2019-02-28T03:59:42.120Z,6.20
2019-02-28T04:02:20.988Z,6.20
2019-02-28T04:04:50.165Z,6.40
2019-02-28T04:07:22.703Z,5.00
2019-02-28T04:09:55.446Z,7.00
2019-02-28T04:12:27.909Z,3.80
2019-02-28T04:15:00.419Z,3.00
2019-02-28T04:17:32.899Z,4.00
2019-02-28T04:20:05.878Z,4.40
2019-02-28T04:22:38.409Z,3.40
2019-02-28T04:25:12.251Z,4.80
2019-02-28T04:27:44.870Z,5.80
2019-02-28T04:30:17.524Z,3.60
2019-02-28T04:32:50.099Z,4.40
2019-02-28T04:35:25.290Z,4.80
2019-02-28T04:37:56.404Z,3.80
2019-02-28T04:40:28.768Z,3.00
2019-02-28T04:43:01.462Z,3.40
2019-02-28T04:45:33.844Z,5.60
2019-02-28T04:48:06.471Z,4.60
2019-02-28T04:50:39.121Z,5.20
2019-02-28T04:53:12.573Z,3.40
2019-02-28T04:55:45.015Z,2.60
2019-02-28T04:58:17.678Z,3.00
2019-02-28T05:00:50.814Z,3.80
2019-02-28T05:03:27.961Z,3.60
2019-02-28T05:05:59.388Z,4.60
2019-02-28T05:09:24.836Z,2.40
2019-02-28T05:12:14.927Z,2.00
2019-02-28T05:14:47.524Z,0.20
2019-02-28T05:17:22.263Z,1.00
2019-02-28T05:19:55.561Z,1.00
2019-02-28T05:22:28.658Z,1.00
2019-02-28T05:25:01.747Z,1.00
2019-02-28T05:27:35.616Z,1.00
2019-02-28T05:30:18.100Z,1.00
2019-02-28T05:32:47.663Z,3.00
2019-02-28T05:35:25.551Z,1.00
2019-02-28T05:37:54.308Z,1.20
2019-02-28T05:40:27.037Z,1.40
2019-02-28T05:42:59.406Z,1.00
2019-02-28T05:45:31.943Z,0.00
2019-02-28T05:48:04.649Z,1.00
2019-02-28T05:50:37.492Z,0.80
2019-02-28T05:53:10.095Z,0.20
2019-02-28T05:55:42.611Z,1.00
2019-02-28T05:58:17.722Z,0.00
2019-02-28T06:00:49.288Z,0.00
2019-02-28T06:03:22.124Z,2.00
2019-02-28T06:05:55.537Z,1.00
2019-02-28T06:08:27.885Z,0.00
2019-02-28T06:11:01.425Z,0.20
2019-02-28T06:13:34.091Z,0.40
2019-02-28T06:16:11.348Z,1.00
2019-02-28T06:18:40.472Z,2.00
2019-02-28T06:21:12.983Z,0.00
2019-02-28T06:23:45.342Z,0.00
2019-02-28T06:26:21.508Z,0.40
2019-02-28T06:28:53.963Z,0.00
2019-02-28T06:31:26.802Z,1.00
2019-02-28T06:33:59.427Z,0.40
2019-02-28T06:36:32.003Z,1.00
2019-02-28T06:39:05.763Z,1.00
2019-02-28T06:41:39.843Z,0.00
2019-02-28T06:44:12.421Z,0.20
2019-02-28T06:46:44.840Z,0.00
2019-02-28T06:49:17.257Z,1.00
2019-02-28T06:51:51.313Z,0.00
2019-02-28T06:54:23.571Z,0.00
2019-02-28T06:56:55.979Z,0.00
2019-02-28T06:59:28.446Z,1.00
2019-02-28T07:02:00.997Z,0.00
2019-02-28T07:04:33.841Z,0.00
2019-02-28T07:07:10.197Z,0.60
2019-02-28T07:09:42.852Z,0.00
2019-02-28T07:12:15.249Z,0.00
2019-02-28T07:14:49.345Z,0.00
2019-02-28T07:17:21.477Z,0.00
2019-02-28T07:19:53.842Z,0.00
2019-02-28T07:22:26.213Z,0.20
2019-02-28T07:24:58.681Z,0.00
2019-02-28T07:27:31.054Z,0.60
2019-02-28T07:30:03.427Z,0.00
2019-02-28T07:32:36.438Z,0.00
2019-02-28T07:35:08.991Z,1.00
2019-02-28T07:37:42.143Z,0.60
2019-02-28T07:40:21.187Z,0.00
2019-02-28T07:42:53.558Z,0.00
2019-02-28T07:45:29.686Z,0.00
2019-02-28T07:48:00.740Z,0.00
2019-02-28T07:50:33.570Z,0.00
2019-02-28T07:53:08.734Z,0.00
2019-02-28T07:55:41.167Z,0.00
2019-02-28T07:58:13.668Z,0.00
2019-02-28T08:00:48.371Z,0.00
2019-02-28T08:03:20.443Z,0.00
2019-02-28T08:06:04.466Z,0.00
2019-02-28T08:08:34.547Z,0.00
2019-02-28T08:11:07.042Z,0.00
2019-02-28T08:13:39.566Z,0.00
2019-02-28T08:16:15.742Z,0.00
2019-02-28T08:18:51.167Z,0.00
2019-02-28T08:21:22.859Z,0.00
2019-02-28T08:23:55.634Z,0.00
2019-02-28T08:26:28.032Z,0.00
2019-02-28T08:29:00.430Z,0.00
2019-02-28T08:31:33.036Z,0.00
2019-02-28T08:34:05.848Z,0.00
2019-02-28T08:36:38.592Z,0.00
2019-02-28T08:39:12.831Z,0.00
2019-02-28T08:41:45.495Z,0.00
2019-02-28T08:44:22.771Z,0.00
2019-02-28T08:46:51.652Z,0.00
2019-02-28T08:49:24.032Z,0.00
2019-02-28T08:51:56.412Z,0.00
2019-02-28T08:54:28.765Z,0.00
2019-02-28T08:57:01.118Z,0.00
2019-02-28T08:59:33.503Z,0.00
2019-02-28T09:02:06.135Z,0.00
2019-02-28T09:04:41.541Z,0.00
2019-02-28T09:07:15.911Z,0.00
2019-02-28T09:09:48.894Z,0.00
2019-02-28T09:12:21.245Z,0.00
2019-02-28T09:14:55.452Z,0.00
2019-02-28T09:17:28.131Z,0.00
2019-02-28T09:20:00.507Z,0.00
2019-02-28T09:22:33.555Z,0.00
2019-02-28T09:25:08.179Z,0.00
2019-02-28T09:27:40.884Z,0.00
2019-02-28T09:30:21.816Z,0.00
2019-02-28T09:32:54.530Z,0.00
2019-02-28T09:35:27.570Z,0.00
2019-02-28T09:38:03.273Z,0.00
2019-02-28T09:40:34.008Z,0.00
2019-02-28T09:43:06.596Z,0.00
2019-02-28T09:45:39.875Z,0.00
2019-02-28T09:48:13.216Z,0.00
2019-02-28T09:50:45.701Z,1.00
2019-02-28T09:53:18.058Z,0.00
2019-02-28T09:55:50.570Z,0.00
2019-02-28T09:58:26.125Z,0.00
2019-02-28T10:00:57.220Z,0.00
2019-02-28T10:03:30.662Z,0.00
2019-02-28T10:06:03.207Z,0.00
2019-02-28T10:08:36.824Z,0.00
2019-02-28T10:11:09.809Z,0.00
2019-02-28T10:13:44.731Z,0.00
2019-02-28T10:16:17.678Z,0.40
2019-02-28T10:18:50.127Z,0.00
2019-02-28T10:21:22.478Z,0.00
2019-02-28T10:23:57.052Z,0.00
2019-02-28T10:26:30.324Z,0.00
2019-02-28T10:29:04.569Z,0.00
2019-02-28T10:31:38.393Z,0.00
2019-02-28T10:34:11.410Z,0.00
2019-02-28T10:36:44.384Z,0.00
2019-02-28T10:39:18.621Z,0.00
2019-02-28T10:41:51.893Z,0.00
2019-02-28T10:44:30.272Z,0.00
2019-02-28T10:47:00.049Z,0.00
2019-02-28T10:49:32.540Z,0.00
2019-02-28T10:52:04.974Z,0.00
2019-02-28T10:54:37.669Z,0.00
2019-02-28T10:57:10.122Z,0.00
2019-02-28T10:59:42.530Z,0.00
2019-02-28T11:02:19.819Z,0.00
2019-02-28T11:04:50.917Z,0.00
2019-02-28T11:07:23.493Z,0.00
2019-02-28T11:09:58.631Z,0.00
2019-02-28T11:12:30.674Z,0.00
2019-02-28T11:15:03.153Z,0.00
2019-02-28T11:17:37.356Z,0.00
2019-02-28T11:20:21.841Z,0.00
2019-02-28T11:22:45.749Z,0.00
2019-02-28T11:25:19.382Z,0.00
2019-02-28T11:27:53.716Z,0.00
2019-02-28T11:30:28.308Z,0.00
2019-02-28T11:33:04.566Z,0.00
2019-02-28T11:35:35.614Z,0.00
2019-02-28T11:38:08.270Z,0.00
2019-02-28T11:40:44.607Z,0.00
2019-02-28T11:43:18.082Z,0.00
2019-02-28T11:45:50.784Z,3.00
2019-02-28T11:48:30.644Z,0.00
2019-02-28T11:51:03.308Z,0.00
2019-02-28T11:53:40.378Z,0.00
2019-02-28T11:56:11.629Z,0.00
2019-02-28T11:58:51.129Z,0.00
2019-02-28T12:01:19.772Z,0.00
2019-02-28T12:03:52.356Z,0.00
2019-02-28T12:06:25.737Z,0.00
2019-02-28T12:08:59.043Z,0.00
2019-02-28T12:11:33.501Z,0.00
2019-02-28T12:14:06.322Z,0.00
2019-02-28T12:16:38.962Z,0.00
2019-02-28T12:19:12.576Z,0.00
2019-02-28T12:21:46.476Z,0.00
2019-02-28T12:24:18.828Z,0.00
2019-02-28T12:26:52.744Z,0.00
2019-02-28T12:29:25.004Z,0.00
2019-02-28T12:31:57.327Z,0.00
2019-02-28T12:34:29.951Z,0.00
2019-02-28T12:37:03.386Z,0.00
2019-02-28T12:39:36.367Z,0.00
2019-02-28T12:42:09.512Z,0.00
2019-02-28T12:44:42.312Z,0.00
2019-02-28T12:47:14.848Z,0.00
2019-02-28T12:49:47.623Z,0.00
2019-02-28T12:52:19.953Z,0.00
2019-02-28T12:54:52.673Z,0.00
2019-02-28T12:57:25.749Z,0.00
2019-02-28T12:59:58.788Z,0.00
2019-02-28T13:02:31.488Z,0.00
2019-02-28T13:05:04.266Z,0.00
2019-02-28T13:07:37.157Z,0.00
2019-02-28T13:10:18.743Z,0.00
2019-02-28T13:12:51.483Z,0.00
2019-02-28T13:15:24.437Z,0.00
2019-02-28T13:17:56.961Z,0.00
2019-02-28T13:20:36.681Z,0.00
2019-02-28T13:23:09.164Z,0.00
2019-02-28T13:25:41.550Z,0.00
2019-02-28T13:28:17.878Z,0.00
2019-02-28T13:30:52.564Z,0.00
2019-02-28T13:33:25.169Z,0.00
2019-02-28T13:35:57.988Z,0.00
2019-02-28T13:38:30.641Z,0.00
2019-02-28T13:41:03.197Z,0.00
2019-02-28T13:43:35.519Z,0.00
2019-02-28T13:46:08.106Z,0.00
2019-02-28T13:48:40.442Z,0.00
2019-02-28T13:51:13.358Z,0.00
2019-02-28T13:53:45.798Z,0.00
2019-02-28T13:56:18.167Z,0.00
2019-02-28T13:58:53.859Z,0.00
2019-02-28T14:01:25.420Z,0.00
2019-02-28T14:03:58.248Z,0.00
2019-02-28T14:06:31.224Z,0.00
2019-02-28T14:09:04.899Z,0.00
2019-02-28T14:11:37.783Z,0.00
2019-02-28T14:14:11.254Z,0.00
2019-02-28T14:16:44.777Z,0.00
2019-02-28T14:19:20.551Z,0.00
2019-02-28T14:21:51.737Z,0.00
2019-02-28T14:24:27.444Z,0.00
2019-02-28T14:27:08.936Z,0.00
2019-02-28T14:29:43.021Z,0.00
2019-02-28T14:32:16.700Z,0.00
2019-02-28T14:34:49.075Z,0.00
2019-02-28T14:37:21.579Z,0.00
2019-02-28T14:39:54.046Z,0.00
2019-02-28T14:42:26.918Z,0.00
2019-02-28T14:45:03.871Z,0.00
2019-02-28T14:47:34.894Z,0.00
2019-02-28T14:50:10.461Z,0.00
2019-02-28T14:52:42.827Z,0.00
2019-02-28T14:55:19.449Z,0.00
2019-02-28T14:57:51.919Z,0.00
2019-02-28T15:00:35.429Z,0.00
2019-02-28T15:03:08.715Z,0.20
2019-02-28T15:05:43.551Z,0.00
2019-02-28T15:08:16.263Z,0.00
2019-02-28T15:10:49.250Z,0.00
2019-02-28T15:13:21.967Z,0.00
2019-02-28T15:15:54.688Z,0.00
2019-02-28T15:18:27.485Z,0.00
2019-02-28T15:21:00.212Z,0.00
2019-02-28T15:23:34.189Z,0.00
2019-02-28T15:26:06.898Z,0.00
2019-02-28T15:28:39.729Z,0.00
2019-02-28T15:31:13.639Z,0.00
2019-02-28T15:33:46.524Z,0.00
2019-02-28T15:36:20.912Z,0.00
2019-02-28T15:38:53.511Z,0.00
2019-02-28T15:41:25.945Z,0.00
2019-02-28T15:43:58.679Z,0.00
2019-02-28T15:46:31.719Z,0.00
2019-02-28T15:49:06.466Z,0.20
2019-02-28T15:51:38.324Z,0.00
2019-02-28T15:54:10.839Z,4.60
2019-02-28T15:56:43.130Z,11.80
2019-02-28T15:59:15.657Z,17.80
2019-02-28T16:01:47.967Z,30.80
2019-02-28T16:04:23.415Z,37.80
2019-02-28T16:06:57.961Z,32.00
2019-02-28T16:09:28.181Z,42.40
2019-02-28T16:12:00.615Z,55.75
2019-02-28T16:14:34.796Z,81.50
2019-02-28T16:17:07.430Z,131.00
2019-02-28T16:19:39.653Z,162.50
2019-02-28T16:22:14.637Z,198.50
2019-02-28T16:24:45.992Z,225.25
2019-02-28T16:27:18.400Z,266.60
2019-02-28T16:29:52.367Z,268.80
2019-02-28T16:32:25.730Z,271.40
2019-02-28T16:34:57.966Z,289.00
2019-02-28T16:37:32.278Z,282.40
2019-02-28T16:40:06.293Z,282.20
2019-02-28T16:42:39.679Z,279.00
2019-02-28T16:45:16.817Z,291.60
2019-02-28T16:47:50.443Z,276.40
2019-02-28T16:50:23.234Z,278.60
2019-02-28T16:52:56.886Z,275.60
2019-02-28T16:55:31.029Z,267.00
2019-02-28T16:58:03.594Z,257.50
2019-02-28T17:00:36.018Z,258.75
2019-02-28T17:03:08.544Z,293.00
2019-02-28T17:05:40.965Z,262.75
2019-02-28T17:08:15.593Z,244.75
2019-02-28T17:10:47.999Z,243.75
2019-02-28T17:13:39.888Z,239.50
2019-02-28T17:16:19.963Z,236.00
2019-02-28T17:18:53.607Z,238.00
2019-02-28T17:21:26.167Z,226.25
2019-02-28T17:23:58.660Z,219.75
2019-02-28T17:26:49.115Z,213.25
2019-02-28T17:29:25.217Z,212.75
2019-02-28T17:31:56.837Z,210.25
2019-02-28T17:34:29.073Z,211.75
2019-02-28T17:37:01.629Z,204.00
2019-02-28T17:39:33.821Z,195.25
2019-02-28T17:42:08.821Z,197.50
2019-02-28T17:44:52.032Z,198.50
2019-02-28T17:47:29.699Z,187.00
2019-02-28T17:50:19.669Z,177.25
2019-02-28T17:53:00.595Z,179.25
2019-02-28T17:55:56.741Z,180.00
2019-02-28T17:59:04.237Z,176.25
2019-02-28T18:01:37.122Z,170.75
2019-02-28T18:04:28.205Z,174.75
2019-02-28T18:07:14.787Z,161.25
2019-02-28T18:09:49.517Z,165.00
2019-02-28T18:12:33.146Z,164.25
2019-02-28T18:15:11.024Z,153.25
2019-02-28T18:18:05.464Z,150.50
2019-02-28T18:20:47.291Z,145.25
2019-02-28T18:23:51.859Z,143.75
2019-02-28T18:26:55.170Z,142.75
2019-02-28T18:30:01.464Z,136.50
2019-02-28T18:32:35.103Z,138.25
2019-02-28T18:35:09.893Z,133.75
2019-02-28T18:37:42.109Z,132.25
2019-02-28T18:40:14.652Z,134.00
2019-02-28T18:42:46.852Z,134.50
2019-02-28T18:45:22.303Z,133.25
2019-02-28T18:47:53.156Z,128.50
2019-02-28T18:50:25.642Z,125.00
2019-02-28T18:52:58.218Z,128.50
2019-02-28T18:55:34.837Z,119.75
2019-02-28T18:58:04.727Z,123.00
2019-02-28T19:00:36.908Z,122.75
2019-02-28T19:03:09.316Z,113.50
2019-02-28T19:05:41.661Z,110.50
2019-02-28T19:08:14.093Z,115.75
2019-02-28T19:10:46.605Z,112.00
2019-02-28T19:13:19.172Z,112.50
2019-02-28T19:15:51.729Z,113.75
2019-02-28T19:18:24.444Z,109.75
2019-02-28T19:20:57.185Z,100.00
2019-02-28T19:23:29.723Z,101.25
2019-02-28T19:26:02.256Z,99.50
2019-02-28T19:28:34.854Z,98.25
2019-02-28T19:31:07.409Z,95.25
2019-02-28T19:33:40.838Z,91.75
2019-02-28T19:36:13.024Z,92.25
2019-02-28T19:38:45.825Z,87.00
2019-02-28T19:41:18.204Z,82.00
2019-02-28T19:43:50.407Z,83.00
2019-02-28T19:46:22.596Z,80.75
2019-02-28T19:48:54.986Z,79.50
2019-02-28T19:51:27.344Z,77.75
2019-02-28T19:54:00.120Z,80.00
2019-02-28T19:56:32.773Z,79.25
2019-02-28T19:59:05.413Z,75.75
2019-02-28T20:01:37.762Z,72.25
2019-02-28T20:04:10.312Z,73.00
2019-02-28T20:06:42.598Z,73.00
2019-02-28T20:09:15.006Z,73.50
2019-02-28T20:11:47.367Z,71.00
2019-02-28T20:14:19.784Z,72.50
2019-02-28T20:16:52.059Z,70.25
2019-02-28T20:19:24.420Z,70.00
2019-02-28T20:21:57.043Z,73.00
2019-02-28T20:24:29.267Z,69.00
2019-02-28T20:27:01.836Z,66.75
2019-02-28T20:29:34.456Z,66.25
2019-02-28T20:32:06.832Z,66.25
2019-02-28T20:34:39.515Z,66.75
2019-02-28T20:37:12.078Z,64.25
2019-02-28T20:39:44.874Z,62.75
2019-02-28T20:42:19.569Z,63.00
2019-02-28T20:44:52.117Z,65.00
2019-02-28T20:47:24.604Z,61.00
2019-02-28T20:49:57.079Z,58.50
2019-02-28T20:52:29.437Z,60.50
2019-02-28T20:55:01.807Z,59.50
2019-02-28T20:57:36.125Z,57.75
2019-02-28T21:00:14.398Z,54.75
2019-02-28T21:02:47.082Z,56.00
2019-02-28T21:05:19.470Z,56.25
2019-02-28T21:07:52.041Z,57.25
2019-02-28T21:10:24.517Z,54.50
2019-02-28T21:12:56.774Z,54.25
2019-02-28T21:15:29.569Z,54.75
2019-02-28T21:18:02.534Z,50.75
2019-02-28T21:20:36.366Z,48.50
2019-02-28T21:23:09.027Z,48.25
2019-02-28T21:25:41.573Z,48.25
2019-02-28T21:28:13.736Z,49.50
2019-02-28T21:30:46.040Z,46.75
2019-02-28T21:33:18.335Z,47.25
2019-02-28T21:35:50.755Z,45.25
2019-02-28T21:38:23.172Z,46.80
2019-02-28T21:40:55.951Z,48.75
2019-02-28T21:43:28.275Z,42.20
2019-02-28T21:46:00.586Z,43.80
2019-02-28T21:48:32.875Z,41.40
2019-02-28T21:51:05.844Z,41.40
2019-02-28T21:53:39.081Z,40.40
2019-02-28T21:56:14.181Z,42.00
2019-02-28T21:58:51.723Z,36.80
2019-02-28T22:01:24.035Z,36.60
2019-02-28T22:03:57.450Z,36.20
2019-02-28T22:09:23.408Z,33.00
2019-02-28T22:11:56.638Z,37.40
2019-02-28T22:14:29.673Z,33.80
2019-02-28T22:17:02.724Z,33.60
2019-02-28T22:19:36.098Z,34.40
2019-02-28T22:22:09.448Z,30.80
2019-02-28T22:24:42.198Z,30.40
2019-02-28T22:27:14.954Z,31.40
2019-02-28T22:29:47.876Z,26.60
2019-02-28T22:32:24.722Z,28.40
2019-02-28T22:34:57.274Z,28.00
2019-02-28T22:37:29.819Z,25.80
2019-02-28T22:40:02.227Z,29.60
2019-02-28T22:42:35.886Z,27.40
2019-02-28T22:45:09.059Z,26.00
2019-02-28T22:47:41.345Z,23.80
2019-02-28T22:50:13.715Z,17.80
2019-02-28T22:52:46.197Z,25.00
2019-02-28T22:55:18.853Z,21.80
2019-02-28T22:57:51.637Z,21.20
2019-02-28T23:00:39.622Z,25.00
2019-02-28T23:03:13.471Z,20.20
2019-02-28T23:05:48.027Z,22.00
2019-02-28T23:08:20.217Z,21.40
2019-02-28T23:10:52.980Z,20.20
2019-02-28T23:13:26.021Z,18.80
2019-02-28T23:16:02.501Z,16.60
2019-02-28T23:18:34.768Z,17.40
2019-02-28T23:21:07.819Z,19.00
2019-02-28T23:23:40.553Z,15.80
2019-02-28T23:26:14.487Z,16.00
2019-02-28T23:28:52.476Z,17.00
2019-02-28T23:31:52.845Z,18.60
2019-02-28T23:34:30.293Z,17.00
2019-02-28T23:37:02.783Z,20.20
2019-02-28T23:39:35.101Z,13.60
2019-02-28T23:42:07.540Z,17.40
2019-02-28T23:44:39.843Z,13.80
2019-02-28T23:47:12.016Z,16.00
2019-02-28T23:49:44.227Z,16.00
2019-02-28T23:52:16.698Z,14.00
2019-02-28T23:54:49.646Z,14.60
2019-02-28T23:57:22.052Z,15.60
2019-02-28T23:59:54.869Z,12.80
